sensor_id;sensor_type;location;lat;lon;timestamp;temperature;humidity
2300;DHT22;1158;48.750;9.078;2023-07-31T00:00:38;11.50;99.90
2300;DHT22;1158;48.750;9.078;2023-07-31T00:03:05;11.40;99.90
2300;DHT22;1158;48.750;9.078;2023-07-31T00:05:31;11.40;99.90
2300;DHT22;1158;48.750;9.078;2023-07-31T00:07:58;11.30;99.90
2300;DHT22;1158;48.750;9.078;2023-07-31T00:10:25;11.30;99.90
2300;DHT22;1158;48.750;9.078;2023-07-31T00:12:51;11.30;99.90
2300;DHT22;1158;48.750;9.078;2023-07-31T00:15:19;11.30;99.90
2300;DHT22;1158;48.750;9.078;2023-07-31T00:17:46;11.20;99.90
2300;DHT22;1158;48.750;9.078;2023-07-31T00:20:13;11.20;99.90
2300;DHT22;1158;48.750;9.078;2023-07-31T00:22:40;11.10;99.90
2300;DHT22;1158;48.750;9.078;2023-07-31T00:25:07;11.10;99.90
2300;DHT22;1158;48.750;9.078;2023-07-31T00:27:33;11.10;99.90
2300;DHT22;1158;48.750;9.078;2023-07-31T00:30:00;11.00;99.90
2300;DHT22;1158;48.750;9.078;2023-07-31T00:32:28;11.20;99.90
2300;DHT22;1158;48.750;9.078;2023-07-31T00:34:55;11.20;99.90
2300;DHT22;1158;48.750;9.078;2023-07-31T00:37:21;11.30;99.90
2300;DHT22;1158;48.750;9.078;2023-07-31T00:39:48;11.50;99.90
2300;DHT22;1158;48.750;9.078;2023-07-31T00:42:15;11.70;99.90
2300;DHT22;1158;48.750;9.078;2023-07-31T00:44:41;11.90;99.90
2300;DHT22;1158;48.750;9.078;2023-07-31T00:47:08;12.00;99.90
2300;DHT22;1158;48.750;9.078;2023-07-31T00:49:36;12.10;99.90
2300;DHT22;1158;48.750;9.078;2023-07-31T00:52:04;12.20;99.90
2300;DHT22;1158;48.750;9.078;2023-07-31T00:54:31;12.30;99.90
2300;DHT22;1158;48.750;9.078;2023-07-31T00:56:58;12.30;99.90
2300;DHT22;1158;48.750;9.078;2023-07-31T00:59:25;12.30;99.90
2300;DHT22;1158;48.750;9.078;2023-07-31T01:01:52;12.20;99.90
2300;DHT22;1158;48.750;9.078;2023-07-31T01:04:19;12.10;99.90
2300;DHT22;1158;48.750;9.078;2023-07-31T01:06:54;12.10;99.90
2300;DHT22;1158;48.750;9.078;2023-07-31T01:09:29;12.00;99.90
2300;DHT22;1158;48.750;9.078;2023-07-31T01:12:02;11.90;99.90
2300;DHT22;1158;48.750;9.078;2023-07-31T01:14:29;11.80;99.90
2300;DHT22;1158;48.750;9.078;2023-07-31T01:16:56;11.70;99.90
2300;DHT22;1158;48.750;9.078;2023-07-31T01:19:25;11.60;99.90
2300;DHT22;1158;48.750;9.078;2023-07-31T01:22:11;11.50;99.90
2300;DHT22;1158;48.750;9.078;2023-07-31T01:24:54;11.50;99.90
2300;DHT22;1158;48.750;9.078;2023-07-31T01:27:25;11.30;99.90
2300;DHT22;1158;48.750;9.078;2023-07-31T01:29:59;11.30;99.90
2300;DHT22;1158;48.750;9.078;2023-07-31T01:32:28;11.30;99.90
2300;DHT22;1158;48.750;9.078;2023-07-31T01:34:55;11.30;99.90
2300;DHT22;1158;48.750;9.078;2023-07-31T01:37:28;11.20;99.90
2300;DHT22;1158;48.750;9.078;2023-07-31T01:39:55;11.20;99.90
2300;DHT22;1158;48.750;9.078;2023-07-31T01:42:23;11.20;99.90
2300;DHT22;1158;48.750;9.078;2023-07-31T01:44:50;11.10;99.90
2300;DHT22;1158;48.750;9.078;2023-07-31T01:47:16;11.10;99.90
2300;DHT22;1158;48.750;9.078;2023-07-31T01:49:43;11.10;99.90
2300;DHT22;1158;48.750;9.078;2023-07-31T01:52:10;11.00;99.90
2300;DHT22;1158;48.750;9.078;2023-07-31T01:54:36;10.90;99.90
2300;DHT22;1158;48.750;9.078;2023-07-31T01:57:03;10.80;99.90
2300;DHT22;1158;48.750;9.078;2023-07-31T01:59:32;10.80;99.90
2300;DHT22;1158;48.750;9.078;2023-07-31T02:01:58;10.80;99.90
2300;DHT22;1158;48.750;9.078;2023-07-31T02:04:25;10.70;99.90
2300;DHT22;1158;48.750;9.078;2023-07-31T02:06:52;10.70;99.90
2300;DHT22;1158;48.750;9.078;2023-07-31T02:09:19;10.90;99.90
2300;DHT22;1158;48.750;9.078;2023-07-31T02:11:46;10.90;99.90
2300;DHT22;1158;48.750;9.078;2023-07-31T02:14:12;11.00;99.90
2300;DHT22;1158;48.750;9.078;2023-07-31T02:16:40;11.10;99.90
2300;DHT22;1158;48.750;9.078;2023-07-31T02:19:08;11.20;99.90
2300;DHT22;1158;48.750;9.078;2023-07-31T02:21:34;11.30;99.90
2300;DHT22;1158;48.750;9.078;2023-07-31T02:24:01;11.20;99.90
2300;DHT22;1158;48.750;9.078;2023-07-31T02:26:28;11.10;99.90
2300;DHT22;1158;48.750;9.078;2023-07-31T02:28:54;11.20;99.90
2300;DHT22;1158;48.750;9.078;2023-07-31T02:31:21;11.20;99.90
2300;DHT22;1158;48.750;9.078;2023-07-31T02:33:49;11.30;99.90
2300;DHT22;1158;48.750;9.078;2023-07-31T02:36:16;11.40;99.90
2300;DHT22;1158;48.750;9.078;2023-07-31T02:38:43;11.40;99.90
2300;DHT22;1158;48.750;9.078;2023-07-31T02:41:09;11.40;99.90
2300;DHT22;1158;48.750;9.078;2023-07-31T02:43:36;11.50;99.90
2300;DHT22;1158;48.750;9.078;2023-07-31T02:46:03;11.50;99.90
2300;DHT22;1158;48.750;9.078;2023-07-31T02:48:29;11.60;99.90
2300;DHT22;1158;48.750;9.078;2023-07-31T02:50:57;11.60;99.90
2300;DHT22;1158;48.750;9.078;2023-07-31T02:53:24;11.70;99.90
2300;DHT22;1158;48.750;9.078;2023-07-31T02:55:51;11.80;99.90
2300;DHT22;1158;48.750;9.078;2023-07-31T02:58:18;11.80;99.90
2300;DHT22;1158;48.750;9.078;2023-07-31T03:00:44;12.00;99.90
2300;DHT22;1158;48.750;9.078;2023-07-31T03:03:11;12.00;99.90
2300;DHT22;1158;48.750;9.078;2023-07-31T03:05:38;12.00;99.90
2300;DHT22;1158;48.750;9.078;2023-07-31T03:08:07;12.00;99.90
2300;DHT22;1158;48.750;9.078;2023-07-31T03:10:33;12.20;99.90
2300;DHT22;1158;48.750;9.078;2023-07-31T03:13:00;12.20;99.90
2300;DHT22;1158;48.750;9.078;2023-07-31T03:15:27;12.40;99.90
2300;DHT22;1158;48.750;9.078;2023-07-31T03:17:53;12.40;99.90
2300;DHT22;1158;48.750;9.078;2023-07-31T03:20:20;12.40;99.90
2300;DHT22;1158;48.750;9.078;2023-07-31T03:22:47;12.50;99.90
2300;DHT22;1158;48.750;9.078;2023-07-31T03:25:15;12.60;99.90
2300;DHT22;1158;48.750;9.078;2023-07-31T03:27:41;12.60;99.90
2300;DHT22;1158;48.750;9.078;2023-07-31T03:30:09;12.70;99.90
2300;DHT22;1158;48.750;9.078;2023-07-31T03:32:35;12.70;99.90
2300;DHT22;1158;48.750;9.078;2023-07-31T03:35:02;12.70;99.90
2300;DHT22;1158;48.750;9.078;2023-07-31T03:37:30;12.60;99.90
2300;DHT22;1158;48.750;9.078;2023-07-31T03:39:57;12.60;99.90
2300;DHT22;1158;48.750;9.078;2023-07-31T03:42:25;12.70;99.90
2300;DHT22;1158;48.750;9.078;2023-07-31T03:44:52;12.70;99.90
2300;DHT22;1158;48.750;9.078;2023-07-31T03:47:18;12.70;99.90
2300;DHT22;1158;48.750;9.078;2023-07-31T03:49:45;12.70;99.90
2300;DHT22;1158;48.750;9.078;2023-07-31T03:52:12;12.90;99.90
2300;DHT22;1158;48.750;9.078;2023-07-31T03:54:38;12.90;99.90
2300;DHT22;1158;48.750;9.078;2023-07-31T03:57:05;12.90;99.90
2300;DHT22;1158;48.750;9.078;2023-07-31T03:59:33;13.10;99.90
2300;DHT22;1158;48.750;9.078;2023-07-31T04:02:00;13.20;99.90
2300;DHT22;1158;48.750;9.078;2023-07-31T04:04:27;13.30;99.90
2300;DHT22;1158;48.750;9.078;2023-07-31T04:06:53;13.40;99.90
2300;DHT22;1158;48.750;9.078;2023-07-31T04:09:20;13.50;99.90
2300;DHT22;1158;48.750;9.078;2023-07-31T04:11:47;13.70;99.90
2300;DHT22;1158;48.750;9.078;2023-07-31T04:14:13;13.70;99.90
2300;DHT22;1158;48.750;9.078;2023-07-31T04:16:41;13.80;99.90
2300;DHT22;1158;48.750;9.078;2023-07-31T04:19:08;13.90;99.90
2300;DHT22;1158;48.750;9.078;2023-07-31T04:21:36;14.00;99.90
2300;DHT22;1158;48.750;9.078;2023-07-31T04:24:03;14.00;99.90
2300;DHT22;1158;48.750;9.078;2023-07-31T04:26:29;14.00;99.90
2300;DHT22;1158;48.750;9.078;2023-07-31T04:28:56;14.10;99.90
2300;DHT22;1158;48.750;9.078;2023-07-31T04:31:23;14.10;99.90
2300;DHT22;1158;48.750;9.078;2023-07-31T04:33:51;14.20;99.90
2300;DHT22;1158;48.750;9.078;2023-07-31T04:36:17;14.20;99.90
2300;DHT22;1158;48.750;9.078;2023-07-31T04:38:44;14.20;99.90
2300;DHT22;1158;48.750;9.078;2023-07-31T04:41:11;14.20;99.90
2300;DHT22;1158;48.750;9.078;2023-07-31T04:43:37;14.30;99.90
2300;DHT22;1158;48.750;9.078;2023-07-31T04:46:05;14.30;99.90
2300;DHT22;1158;48.750;9.078;2023-07-31T04:48:32;14.40;99.90
2300;DHT22;1158;48.750;9.078;2023-07-31T04:51:00;14.40;99.90
2300;DHT22;1158;48.750;9.078;2023-07-31T04:53:26;14.50;99.90
2300;DHT22;1158;48.750;9.078;2023-07-31T04:55:53;14.60;99.90
2300;DHT22;1158;48.750;9.078;2023-07-31T04:58:20;14.60;99.90
2300;DHT22;1158;48.750;9.078;2023-07-31T05:00:46;14.60;99.90
2300;DHT22;1158;48.750;9.078;2023-07-31T05:03:13;14.70;99.90
2300;DHT22;1158;48.750;9.078;2023-07-31T05:05:40;14.70;99.90
2300;DHT22;1158;48.750;9.078;2023-07-31T05:08:08;14.70;99.90
2300;DHT22;1158;48.750;9.078;2023-07-31T05:10:34;14.70;99.90
2300;DHT22;1158;48.750;9.078;2023-07-31T05:13:01;14.70;99.90
2300;DHT22;1158;48.750;9.078;2023-07-31T05:15:28;14.80;99.90
2300;DHT22;1158;48.750;9.078;2023-07-31T05:17:55;14.80;99.90
2300;DHT22;1158;48.750;9.078;2023-07-31T05:20:22;14.90;99.90
2300;DHT22;1158;48.750;9.078;2023-07-31T05:22:48;15.00;99.90
2300;DHT22;1158;48.750;9.078;2023-07-31T05:25:18;15.10;99.90
2300;DHT22;1158;48.750;9.078;2023-07-31T05:27:45;15.10;99.90
2300;DHT22;1158;48.750;9.078;2023-07-31T05:30:12;15.10;99.90
2300;DHT22;1158;48.750;9.078;2023-07-31T05:32:38;15.30;99.90
2300;DHT22;1158;48.750;9.078;2023-07-31T05:35:05;15.40;99.90
2300;DHT22;1158;48.750;9.078;2023-07-31T05:37:32;15.50;99.90
2300;DHT22;1158;48.750;9.078;2023-07-31T05:39:59;15.70;99.90
2300;DHT22;1158;48.750;9.078;2023-07-31T05:42:27;15.80;99.90
2300;DHT22;1158;48.750;9.078;2023-07-31T05:44:54;16.10;99.90
2300;DHT22;1158;48.750;9.078;2023-07-31T05:47:20;16.20;99.90
2300;DHT22;1158;48.750;9.078;2023-07-31T05:49:48;16.60;99.90
2300;DHT22;1158;48.750;9.078;2023-07-31T05:52:15;16.50;99.90
2300;DHT22;1158;48.750;9.078;2023-07-31T05:54:42;16.60;99.90
2300;DHT22;1158;48.750;9.078;2023-07-31T05:57:08;16.70;99.90
2300;DHT22;1158;48.750;9.078;2023-07-31T05:59:36;17.30;99.90
2300;DHT22;1158;48.750;9.078;2023-07-31T06:02:03;17.70;99.90
2300;DHT22;1158;48.750;9.078;2023-07-31T06:04:30;17.60;99.90
2300;DHT22;1158;48.750;9.078;2023-07-31T06:06:57;17.40;99.90
2300;DHT22;1158;48.750;9.078;2023-07-31T06:09:23;17.30;99.90
2300;DHT22;1158;48.750;9.078;2023-07-31T06:11:51;17.30;99.90
2300;DHT22;1158;48.750;9.078;2023-07-31T06:14:17;17.40;99.90
2300;DHT22;1158;48.750;9.078;2023-07-31T06:16:45;17.40;99.90
2300;DHT22;1158;48.750;9.078;2023-07-31T06:19:12;17.30;99.90
2300;DHT22;1158;48.750;9.078;2023-07-31T06:21:38;17.80;99.90
2300;DHT22;1158;48.750;9.078;2023-07-31T06:24:07;18.30;99.90
2300;DHT22;1158;48.750;9.078;2023-07-31T06:26:34;18.30;99.90
2300;DHT22;1158;48.750;9.078;2023-07-31T06:29:02;18.10;99.90
2300;DHT22;1158;48.750;9.078;2023-07-31T06:31:29;18.50;99.90
2300;DHT22;1158;48.750;9.078;2023-07-31T06:33:57;18.20;99.90
2300;DHT22;1158;48.750;9.078;2023-07-31T06:36:24;18.30;99.90
2300;DHT22;1158;48.750;9.078;2023-07-31T06:38:52;18.30;99.90
2300;DHT22;1158;48.750;9.078;2023-07-31T06:41:18;18.00;99.90
2300;DHT22;1158;48.750;9.078;2023-07-31T06:43:45;18.20;99.90
2300;DHT22;1158;48.750;9.078;2023-07-31T06:46:12;18.80;99.90
2300;DHT22;1158;48.750;9.078;2023-07-31T06:48:39;19.60;99.90
2300;DHT22;1158;48.750;9.078;2023-07-31T06:51:07;20.30;99.90
2300;DHT22;1158;48.750;9.078;2023-07-31T06:53:33;21.00;99.90
2300;DHT22;1158;48.750;9.078;2023-07-31T06:56:00;20.40;99.90
2300;DHT22;1158;48.750;9.078;2023-07-31T06:58:27;19.40;99.90
2300;DHT22;1158;48.750;9.078;2023-07-31T07:00:53;19.10;99.90
2300;DHT22;1158;48.750;9.078;2023-07-31T07:03:20;19.20;99.90
2300;DHT22;1158;48.750;9.078;2023-07-31T07:05:47;19.40;99.90
2300;DHT22;1158;48.750;9.078;2023-07-31T07:08:15;20.00;99.90
2300;DHT22;1158;48.750;9.078;2023-07-31T07:10:42;20.30;99.90
2300;DHT22;1158;48.750;9.078;2023-07-31T07:13:09;20.70;99.90
2300;DHT22;1158;48.750;9.078;2023-07-31T07:15:35;20.60;99.90
2300;DHT22;1158;48.750;9.078;2023-07-31T07:18:02;20.40;99.90
2300;DHT22;1158;48.750;9.078;2023-07-31T07:20:29;20.80;99.90
2300;DHT22;1158;48.750;9.078;2023-07-31T07:22:56;21.00;99.90
2300;DHT22;1158;48.750;9.078;2023-07-31T07:25:24;21.70;99.90
2300;DHT22;1158;48.750;9.078;2023-07-31T07:27:51;23.30;99.90
2300;DHT22;1158;48.750;9.078;2023-07-31T07:30:18;23.50;98.90
2300;DHT22;1158;48.750;9.078;2023-07-31T07:32:45;23.00;99.00
2300;DHT22;1158;48.750;9.078;2023-07-31T07:35:12;22.80;99.10
2300;DHT22;1158;48.750;9.078;2023-07-31T07:37:39;22.30;99.40
2300;DHT22;1158;48.750;9.078;2023-07-31T07:40:06;21.40;99.50
2300;DHT22;1158;48.750;9.078;2023-07-31T07:42:35;21.10;99.90
2300;DHT22;1158;48.750;9.078;2023-07-31T07:45:01;21.30;99.70
2300;DHT22;1158;48.750;9.078;2023-07-31T07:47:28;21.20;99.40
2300;DHT22;1158;48.750;9.078;2023-07-31T07:49:55;21.30;99.50
2300;DHT22;1158;48.750;9.078;2023-07-31T07:52:21;21.90;98.80
2300;DHT22;1158;48.750;9.078;2023-07-31T07:54:48;22.30;98.40
2300;DHT22;1158;48.750;9.078;2023-07-31T07:57:15;22.50;98.80
2300;DHT22;1158;48.750;9.078;2023-07-31T07:59:43;23.30;97.50
2300;DHT22;1158;48.750;9.078;2023-07-31T08:02:10;22.80;97.20
2300;DHT22;1158;48.750;9.078;2023-07-31T08:04:37;22.80;97.20
2300;DHT22;1158;48.750;9.078;2023-07-31T08:07:04;22.90;97.30
2300;DHT22;1158;48.750;9.078;2023-07-31T08:09:30;22.20;97.70
2300;DHT22;1158;48.750;9.078;2023-07-31T08:11:57;22.50;97.60
2300;DHT22;1158;48.750;9.078;2023-07-31T08:14:27;22.80;97.50
2300;DHT22;1158;48.750;9.078;2023-07-31T08:16:55;23.60;97.20
2300;DHT22;1158;48.750;9.078;2023-07-31T08:19:22;24.00;95.90
2300;DHT22;1158;48.750;9.078;2023-07-31T08:21:49;23.80;95.90
2300;DHT22;1158;48.750;9.078;2023-07-31T08:24:16;23.70;96.10
2300;DHT22;1158;48.750;9.078;2023-07-31T08:26:42;23.50;95.30
2300;DHT22;1158;48.750;9.078;2023-07-31T08:29:09;23.70;95.60
2300;DHT22;1158;48.750;9.078;2023-07-31T08:31:36;24.40;95.20
2300;DHT22;1158;48.750;9.078;2023-07-31T08:34:04;24.70;93.70
2300;DHT22;1158;48.750;9.078;2023-07-31T08:36:30;24.00;94.20
2300;DHT22;1158;48.750;9.078;2023-07-31T08:38:57;24.00;94.20
2300;DHT22;1158;48.750;9.078;2023-07-31T08:41:24;23.50;95.20
2300;DHT22;1158;48.750;9.078;2023-07-31T08:43:52;23.30;95.10
2300;DHT22;1158;48.750;9.078;2023-07-31T08:46:20;22.80;95.30
2300;DHT22;1158;48.750;9.078;2023-07-31T08:48:47;22.30;95.80
2300;DHT22;1158;48.750;9.078;2023-07-31T08:51:15;22.40;96.60
2300;DHT22;1158;48.750;9.078;2023-07-31T08:53:42;22.10;96.50
2300;DHT22;1158;48.750;9.078;2023-07-31T08:56:10;22.10;96.30
2300;DHT22;1158;48.750;9.078;2023-07-31T08:58:38;22.10;96.70
2300;DHT22;1158;48.750;9.078;2023-07-31T09:01:07;22.00;96.70
2300;DHT22;1158;48.750;9.078;2023-07-31T09:03:34;21.80;96.90
2300;DHT22;1158;48.750;9.078;2023-07-31T09:06:03;21.20;98.00
2300;DHT22;1158;48.750;9.078;2023-07-31T09:08:33;21.50;97.80
2300;DHT22;1158;48.750;9.078;2023-07-31T09:11:01;22.00;96.80
2300;DHT22;1158;48.750;9.078;2023-07-31T09:13:30;21.60;96.90
2300;DHT22;1158;48.750;9.078;2023-07-31T09:15:57;21.40;97.50
2300;DHT22;1158;48.750;9.078;2023-07-31T09:18:24;21.10;98.30
2300;DHT22;1158;48.750;9.078;2023-07-31T09:21:01;21.30;98.10
2300;DHT22;1158;48.750;9.078;2023-07-31T09:23:41;21.30;98.20
2300;DHT22;1158;48.750;9.078;2023-07-31T09:26:08;21.20;98.20
2300;DHT22;1158;48.750;9.078;2023-07-31T09:28:35;21.40;97.80
2300;DHT22;1158;48.750;9.078;2023-07-31T09:31:02;22.10;97.90
2300;DHT22;1158;48.750;9.078;2023-07-31T09:33:29;21.80;97.40
2300;DHT22;1158;48.750;9.078;2023-07-31T09:35:58;21.40;97.80
2300;DHT22;1158;48.750;9.078;2023-07-31T09:38:25;21.20;97.90
2300;DHT22;1158;48.750;9.078;2023-07-31T09:40:53;21.10;97.60
2300;DHT22;1158;48.750;9.078;2023-07-31T09:43:21;21.10;97.90
2300;DHT22;1158;48.750;9.078;2023-07-31T09:45:54;21.60;98.50
2300;DHT22;1158;48.750;9.078;2023-07-31T09:48:24;23.10;96.70
2300;DHT22;1158;48.750;9.078;2023-07-31T09:50:53;24.30;96.10
2300;DHT22;1158;48.750;9.078;2023-07-31T09:53:28;24.50;95.10
2300;DHT22;1158;48.750;9.078;2023-07-31T09:55:58;24.60;94.60
2300;DHT22;1158;48.750;9.078;2023-07-31T09:58:27;24.10;94.90
2300;DHT22;1158;48.750;9.078;2023-07-31T10:00:55;23.80;95.30
2300;DHT22;1158;48.750;9.078;2023-07-31T10:03:24;24.00;94.90
2300;DHT22;1158;48.750;9.078;2023-07-31T10:05:53;24.40;94.80
2300;DHT22;1158;48.750;9.078;2023-07-31T10:08:23;24.50;94.40
2300;DHT22;1158;48.750;9.078;2023-07-31T10:10:58;24.70;95.40
2300;DHT22;1158;48.750;9.078;2023-07-31T10:13:25;24.40;93.70
2300;DHT22;1158;48.750;9.078;2023-07-31T10:15:54;24.10;94.00
2300;DHT22;1158;48.750;9.078;2023-07-31T10:18:25;24.00;94.50
2300;DHT22;1158;48.750;9.078;2023-07-31T10:20:53;24.00;94.90
2300;DHT22;1158;48.750;9.078;2023-07-31T10:23:22;24.20;94.50
2300;DHT22;1158;48.750;9.078;2023-07-31T10:25:50;24.10;95.40
2300;DHT22;1158;48.750;9.078;2023-07-31T10:28:20;24.30;93.90
2300;DHT22;1158;48.750;9.078;2023-07-31T10:30:47;24.00;93.80
2300;DHT22;1158;48.750;9.078;2023-07-31T10:33:15;24.80;93.00
2300;DHT22;1158;48.750;9.078;2023-07-31T10:35:43;24.90;92.30
2300;DHT22;1158;48.750;9.078;2023-07-31T10:38:10;24.80;93.10
2300;DHT22;1158;48.750;9.078;2023-07-31T10:40:37;24.30;93.60
2300;DHT22;1158;48.750;9.078;2023-07-31T10:43:05;23.80;93.70
2300;DHT22;1158;48.750;9.078;2023-07-31T10:45:37;23.50;94.20
2300;DHT22;1158;48.750;9.078;2023-07-31T10:48:05;23.60;95.30
2300;DHT22;1158;48.750;9.078;2023-07-31T10:50:32;24.20;93.40
2300;DHT22;1158;48.750;9.078;2023-07-31T10:52:59;24.60;92.80
2300;DHT22;1158;48.750;9.078;2023-07-31T10:55:31;24.90;93.20
2300;DHT22;1158;48.750;9.078;2023-07-31T10:58:05;25.10;92.50
2300;DHT22;1158;48.750;9.078;2023-07-31T11:00:33;24.80;92.30
2300;DHT22;1158;48.750;9.078;2023-07-31T11:03:03;24.30;92.50
2300;DHT22;1158;48.750;9.078;2023-07-31T11:05:47;24.00;93.70
2300;DHT22;1158;48.750;9.078;2023-07-31T11:08:15;23.70;93.80
2300;DHT22;1158;48.750;9.078;2023-07-31T11:10:42;24.00;93.80
2300;DHT22;1158;48.750;9.078;2023-07-31T11:13:13;24.20;93.30
2300;DHT22;1158;48.750;9.078;2023-07-31T11:15:40;24.10;93.60
2300;DHT22;1158;48.750;9.078;2023-07-31T11:18:08;24.00;93.30
2300;DHT22;1158;48.750;9.078;2023-07-31T11:20:36;24.10;94.00
2300;DHT22;1158;48.750;9.078;2023-07-31T11:23:06;24.30;94.70
2300;DHT22;1158;48.750;9.078;2023-07-31T11:25:33;24.00;93.40
2300;DHT22;1158;48.750;9.078;2023-07-31T11:28:03;23.60;93.50
2300;DHT22;1158;48.750;9.078;2023-07-31T11:30:30;23.20;94.20
2300;DHT22;1158;48.750;9.078;2023-07-31T11:32:57;23.10;94.10
2300;DHT22;1158;48.750;9.078;2023-07-31T11:35:25;23.10;94.70
2300;DHT22;1158;48.750;9.078;2023-07-31T11:37:53;23.30;95.60
2300;DHT22;1158;48.750;9.078;2023-07-31T11:40:19;23.90;95.50
2300;DHT22;1158;48.750;9.078;2023-07-31T11:42:46;24.00;95.20
2300;DHT22;1158;48.750;9.078;2023-07-31T11:45:13;24.10;94.90
2300;DHT22;1158;48.750;9.078;2023-07-31T11:47:39;23.80;94.80
2300;DHT22;1158;48.750;9.078;2023-07-31T11:50:11;23.70;95.00
2300;DHT22;1158;48.750;9.078;2023-07-31T11:52:42;23.30;95.10
2300;DHT22;1158;48.750;9.078;2023-07-31T11:55:11;23.00;95.20
2300;DHT22;1158;48.750;9.078;2023-07-31T11:57:40;22.80;95.50
2300;DHT22;1158;48.750;9.078;2023-07-31T12:00:09;22.60;96.40
2300;DHT22;1158;48.750;9.078;2023-07-31T12:02:37;22.80;95.80
2300;DHT22;1158;48.750;9.078;2023-07-31T12:05:05;22.90;96.30
2300;DHT22;1158;48.750;9.078;2023-07-31T12:07:48;22.90;95.10
2300;DHT22;1158;48.750;9.078;2023-07-31T12:10:26;23.10;95.00
2300;DHT22;1158;48.750;9.078;2023-07-31T12:13:01;23.30;95.50
2300;DHT22;1158;48.750;9.078;2023-07-31T12:15:35;23.20;94.80
2300;DHT22;1158;48.750;9.078;2023-07-31T12:18:07;23.00;94.80
2300;DHT22;1158;48.750;9.078;2023-07-31T12:20:35;22.70;96.20
2300;DHT22;1158;48.750;9.078;2023-07-31T12:23:03;22.70;96.20
2300;DHT22;1158;48.750;9.078;2023-07-31T12:25:33;22.80;96.10
2300;DHT22;1158;48.750;9.078;2023-07-31T12:28:05;22.70;95.80
2300;DHT22;1158;48.750;9.078;2023-07-31T12:30:37;22.40;95.00
2300;DHT22;1158;48.750;9.078;2023-07-31T12:33:04;22.10;95.50
2300;DHT22;1158;48.750;9.078;2023-07-31T12:35:38;21.80;95.30
2300;DHT22;1158;48.750;9.078;2023-07-31T12:38:08;21.70;96.00
2300;DHT22;1158;48.750;9.078;2023-07-31T12:40:37;21.70;96.20
2300;DHT22;1158;48.750;9.078;2023-07-31T12:43:04;21.70;96.20
2300;DHT22;1158;48.750;9.078;2023-07-31T12:45:31;21.90;96.90
2300;DHT22;1158;48.750;9.078;2023-07-31T12:47:58;21.90;96.50
2300;DHT22;1158;48.750;9.078;2023-07-31T12:50:25;21.90;97.00
2300;DHT22;1158;48.750;9.078;2023-07-31T12:52:53;22.30;96.80
2300;DHT22;1158;48.750;9.078;2023-07-31T12:55:21;22.60;95.90
2300;DHT22;1158;48.750;9.078;2023-07-31T12:57:48;22.60;95.80
2300;DHT22;1158;48.750;9.078;2023-07-31T13:00:16;22.80;95.80
2300;DHT22;1158;48.750;9.078;2023-07-31T13:02:43;23.20;95.30
2300;DHT22;1158;48.750;9.078;2023-07-31T13:05:10;23.30;95.30
2300;DHT22;1158;48.750;9.078;2023-07-31T13:07:36;23.30;95.40
2300;DHT22;1158;48.750;9.078;2023-07-31T13:10:04;23.80;94.90
2300;DHT22;1158;48.750;9.078;2023-07-31T13:12:33;23.80;94.10
2300;DHT22;1158;48.750;9.078;2023-07-31T13:14:59;23.60;94.70
2300;DHT22;1158;48.750;9.078;2023-07-31T13:17:26;23.70;94.10
2300;DHT22;1158;48.750;9.078;2023-07-31T13:19:53;23.60;94.60
2300;DHT22;1158;48.750;9.078;2023-07-31T13:22:20;23.60;95.50
2300;DHT22;1158;48.750;9.078;2023-07-31T13:24:47;23.90;94.70
2300;DHT22;1158;48.750;9.078;2023-07-31T13:27:14;24.10;95.00
2300;DHT22;1158;48.750;9.078;2023-07-31T13:29:43;24.20;94.90
2300;DHT22;1158;48.750;9.078;2023-07-31T13:32:10;24.00;93.80
2300;DHT22;1158;48.750;9.078;2023-07-31T13:34:37;23.70;94.30
2300;DHT22;1158;48.750;9.078;2023-07-31T13:37:04;23.80;94.40
2300;DHT22;1158;48.750;9.078;2023-07-31T13:39:31;24.00;93.80
2300;DHT22;1158;48.750;9.078;2023-07-31T13:41:58;23.90;94.20
2300;DHT22;1158;48.750;9.078;2023-07-31T13:44:25;24.20;94.20
2300;DHT22;1158;48.750;9.078;2023-07-31T13:46:53;25.10;95.20
2300;DHT22;1158;48.750;9.078;2023-07-31T13:49:20;25.70;93.70
2300;DHT22;1158;48.750;9.078;2023-07-31T13:51:47;26.40;93.60
2300;DHT22;1158;48.750;9.078;2023-07-31T13:54:14;26.30;92.90
2300;DHT22;1158;48.750;9.078;2023-07-31T13:56:42;26.00;93.00
2300;DHT22;1158;48.750;9.078;2023-07-31T13:59:08;25.60;92.60
2300;DHT22;1158;48.750;9.078;2023-07-31T14:01:35;25.50;93.00
2300;DHT22;1158;48.750;9.078;2023-07-31T14:04:03;25.20;94.20
2300;DHT22;1158;48.750;9.078;2023-07-31T14:06:30;25.00;93.60
2300;DHT22;1158;48.750;9.078;2023-07-31T14:08:57;24.40;94.10
2300;DHT22;1158;48.750;9.078;2023-07-31T14:11:23;24.30;93.80
2300;DHT22;1158;48.750;9.078;2023-07-31T14:13:50;24.10;94.50
2300;DHT22;1158;48.750;9.078;2023-07-31T14:16:18;24.10;94.20
2300;DHT22;1158;48.750;9.078;2023-07-31T14:18:44;23.90;94.40
2300;DHT22;1158;48.750;9.078;2023-07-31T14:21:13;23.70;94.40
2300;DHT22;1158;48.750;9.078;2023-07-31T14:23:40;23.60;94.20
2300;DHT22;1158;48.750;9.078;2023-07-31T14:26:06;23.30;94.80
2300;DHT22;1158;48.750;9.078;2023-07-31T14:28:34;23.10;94.80
2300;DHT22;1158;48.750;9.078;2023-07-31T14:31:00;23.10;95.30
2300;DHT22;1158;48.750;9.078;2023-07-31T14:33:27;23.40;95.80
2300;DHT22;1158;48.750;9.078;2023-07-31T14:35:54;23.60;95.00
2300;DHT22;1158;48.750;9.078;2023-07-31T14:38:23;23.50;94.40
2300;DHT22;1158;48.750;9.078;2023-07-31T14:40:51;23.50;94.70
2300;DHT22;1158;48.750;9.078;2023-07-31T14:43:18;23.80;95.10
2300;DHT22;1158;48.750;9.078;2023-07-31T14:45:44;24.10;94.00
2300;DHT22;1158;48.750;9.078;2023-07-31T14:48:12;24.30;94.40
2300;DHT22;1158;48.750;9.078;2023-07-31T14:50:39;24.30;94.20
2300;DHT22;1158;48.750;9.078;2023-07-31T14:53:06;24.40;93.60
2300;DHT22;1158;48.750;9.078;2023-07-31T14:55:34;24.60;93.30
2300;DHT22;1158;48.750;9.078;2023-07-31T14:58:01;24.50;93.60
2300;DHT22;1158;48.750;9.078;2023-07-31T15:00:28;24.50;94.50
2300;DHT22;1158;48.750;9.078;2023-07-31T15:02:55;24.30;93.40
2300;DHT22;1158;48.750;9.078;2023-07-31T15:05:22;24.10;94.00
2300;DHT22;1158;48.750;9.078;2023-07-31T15:07:48;23.90;93.80
2300;DHT22;1158;48.750;9.078;2023-07-31T15:10:15;23.50;94.20
2300;DHT22;1158;48.750;9.078;2023-07-31T15:12:43;23.50;94.60
2300;DHT22;1158;48.750;9.078;2023-07-31T15:15:10;23.60;94.70
2300;DHT22;1158;48.750;9.078;2023-07-31T15:17:37;23.70;94.90
2300;DHT22;1158;48.750;9.078;2023-07-31T15:20:04;23.70;94.70
2300;DHT22;1158;48.750;9.078;2023-07-31T15:22:31;23.60;93.90
2300;DHT22;1158;48.750;9.078;2023-07-31T15:24:58;23.30;94.80
2300;DHT22;1158;48.750;9.078;2023-07-31T15:27:25;23.30;94.80
2300;DHT22;1158;48.750;9.078;2023-07-31T15:29:53;23.60;96.00
2300;DHT22;1158;48.750;9.078;2023-07-31T15:32:21;23.90;94.20
2300;DHT22;1158;48.750;9.078;2023-07-31T15:34:49;24.00;94.10
2300;DHT22;1158;48.750;9.078;2023-07-31T15:37:15;24.10;94.10
2300;DHT22;1158;48.750;9.078;2023-07-31T15:39:42;24.70;93.80
2300;DHT22;1158;48.750;9.078;2023-07-31T15:42:09;25.10;93.00
2300;DHT22;1158;48.750;9.078;2023-07-31T15:44:36;25.00;92.70
2300;DHT22;1158;48.750;9.078;2023-07-31T15:47:04;25.20;93.00
2300;DHT22;1158;48.750;9.078;2023-07-31T15:49:31;25.20;93.20
2300;DHT22;1158;48.750;9.078;2023-07-31T15:51:58;25.10;92.60
2300;DHT22;1158;48.750;9.078;2023-07-31T15:54:25;24.80;92.90
2300;DHT22;1158;48.750;9.078;2023-07-31T15:56:52;25.10;93.10
2300;DHT22;1158;48.750;9.078;2023-07-31T15:59:18;25.20;92.80
2300;DHT22;1158;48.750;9.078;2023-07-31T16:01:45;25.20;92.90
2300;DHT22;1158;48.750;9.078;2023-07-31T16:04:13;25.30;92.90